Decoded Metar for KSUW (SUPERIOR in WI, USA) (IATA:SUW) | Meteo·Mobile Aviation Weather
aviador You're here:

KSUW Decoded Metar

SUPERIOR in WI, USA
Report Time2019-11-16 02:15:00
UTC Time2019-11-16 02:30:21
Flight Rules vfr VFR
Wind090° at 05 kt
W.Decomp.*RWY 14: 3.3 kt HW 3.8 kt LCW
RWY 04: 3.1 kt HW 3.9 kt RCW
Visibility9999 m
Phenomena:N/A
Clouds:N/A
Expected CloudBase > 2,400 ft AGL from Temp-Dew spread
CeilingNone
Temp-3°C (ISA -17)
Dew Point-9°C (64% RH)
AAT-7.8°C
QNH1029 hPa
Density Alt-1,870 ft
Elevation676 ft
Report Wrong Elevation
Raw Report
KSUW 160215Z AUTO 09005KT 10SM CLR M03/M09 A3039 RMK AO2
T10301091=

Extra information for KSUW:More info

Metar Taf Metar & Taf Last 4 Metars F.Rules Stats Wind Profile Meteogram Temp Stats Airport Information Weather charts Add Link Nearby VenuesMetar ALERT Operation Metar Decoded Social comments

AIRNAV info for KSUW